Cleveland, Ohio
Traffic Map
Current Weather Conditions
Cleveland, Ohio
Broken Clouds
Broken Clouds
28°
Feels Like: 19°
Wind Chill: 19° Ceiling: 3500
Heat Index: 28° Visibility: 10mi
Dew Point: 16° Wind: 10mph
Humidity: 61% Direction: 230° (SW)
Pressure: 30.28in Gusts: 0mph
Raw Report DataKBKL 281753Z 23009KT 10SM BKN035 M02/M09 A3028 RMK AO2 SLP261 60000 T10221089 11022 21044 58025
Traffic Incident Summary
Active as of:
Severity:
Category:
InformationThere was an issue retrieving the traffic information for this location. Please try a different location or try again shortly.
Advertisements
Track Severe Weather on mobile